createdAt,value
2019-02-28T00:01:46.280Z,35.23
2019-02-28T00:04:14.210Z,34.30
2019-02-28T00:06:44.073Z,38.00
2019-02-28T00:09:13.383Z,37.75
2019-02-28T00:11:42.158Z,36.48
2019-02-28T00:14:10.906Z,33.90
2019-02-28T00:16:39.568Z,36.98
2019-02-28T00:19:08.224Z,35.58
2019-02-28T00:21:37.318Z,33.73
2019-02-28T00:24:07.208Z,37.90
2019-02-28T00:26:35.948Z,34.30
2019-02-28T00:29:04.608Z,38.73
2019-02-28T00:31:33.270Z,38.60
2019-02-28T00:34:05.480Z,34.98
2019-02-28T00:36:33.265Z,40.88
2019-02-28T00:39:03.932Z,37.80
2019-02-28T00:41:33.858Z,38.53
2019-02-28T00:44:04.412Z,42.10
2019-02-28T00:46:32.855Z,39.70
2019-02-28T00:49:01.498Z,36.65
2019-02-28T00:51:30.778Z,38.98
2019-02-28T00:53:59.449Z,40.40
2019-02-28T00:56:28.107Z,39.38
2019-02-28T00:58:56.763Z,38.33
2019-02-28T01:01:25.429Z,40.38
2019-02-28T01:03:54.078Z,40.75
2019-02-28T01:06:23.052Z,41.02
2019-02-28T01:08:55.703Z,43.28
2019-02-28T01:11:22.220Z,42.62
2019-02-28T01:13:50.851Z,41.23
2019-02-28T01:16:20.117Z,41.02
2019-02-28T01:18:48.854Z,39.90
2019-02-28T01:21:17.503Z,41.92
2019-02-28T01:23:46.161Z,43.55
2019-02-28T01:26:14.819Z,44.25
2019-02-28T01:28:43.560Z,47.20
2019-02-28T01:31:13.167Z,44.70
2019-02-28T01:33:41.844Z,44.33
2019-02-28T01:36:12.279Z,44.58
2019-02-28T01:38:40.942Z,47.35
2019-02-28T01:41:11.199Z,46.37
2019-02-28T01:43:39.917Z,47.30
2019-02-28T01:46:08.586Z,44.93
2019-02-28T01:48:37.297Z,48.33
2019-02-28T01:51:05.965Z,44.25
2019-02-28T01:53:34.615Z,48.83
2019-02-28T01:56:03.313Z,48.10
2019-02-28T01:58:32.010Z,49.08
2019-02-28T02:01:00.710Z,47.05
2019-02-28T02:03:29.362Z,52.15
2019-02-28T02:05:58.009Z,48.02
2019-02-28T02:08:26.588Z,51.68
2019-02-28T02:10:56.124Z,51.65
2019-02-28T02:13:24.847Z,52.43
2019-02-28T02:15:53.479Z,52.13
2019-02-28T02:18:22.158Z,52.05
2019-02-28T02:20:50.791Z,51.20
2019-02-28T02:23:19.443Z,51.65
2019-02-28T02:25:48.122Z,53.30
2019-02-28T02:28:16.787Z,52.08
2019-02-28T02:30:50.414Z,49.18
2019-02-28T02:33:15.828Z,54.60
2019-02-28T02:35:44.606Z,54.95
2019-02-28T02:38:13.349Z,51.65
2019-02-28T02:40:42.100Z,49.98
2019-02-28T02:43:10.824Z,46.70
2019-02-28T02:45:43.396Z,50.75
2019-02-28T02:48:09.918Z,51.53
2019-02-28T02:50:38.641Z,51.00
2019-02-28T02:53:07.305Z,56.40
2019-02-28T02:55:36.058Z,54.03
2019-02-28T02:58:04.739Z,52.78
2019-02-28T03:00:33.372Z,52.62
2019-02-28T03:03:06.147Z,55.28
2019-02-28T03:05:35.730Z,54.53
2019-02-28T03:08:02.895Z,52.53
2019-02-28T03:10:31.614Z,49.27
2019-02-28T03:13:04.495Z,55.45
2019-02-28T03:15:30.678Z,60.75
2019-02-28T03:17:59.329Z,54.27
2019-02-28T03:20:27.999Z,55.88
2019-02-28T03:22:56.742Z,54.55
2019-02-28T03:25:28.338Z,57.35
2019-02-28T03:27:56.818Z,58.63
2019-02-28T03:30:31.029Z,55.38
2019-02-28T03:32:56.006Z,54.27
2019-02-28T03:35:24.690Z,53.08
2019-02-28T03:37:53.427Z,58.35
2019-02-28T03:40:22.144Z,58.45
2019-02-28T03:42:50.871Z,59.25
2019-02-28T03:45:19.510Z,51.23
2019-02-28T03:47:48.253Z,56.00
2019-02-28T03:50:16.980Z,56.08
2019-02-28T03:52:45.674Z,54.45
2019-02-28T03:55:14.519Z,50.15
2019-02-28T03:57:43.342Z,54.40
2019-02-28T04:00:15.745Z,56.92
2019-02-28T04:02:44.474Z,55.52
2019-02-28T04:05:13.202Z,51.45
2019-02-28T04:07:41.876Z,57.55
2019-02-28T04:10:10.669Z,55.50
2019-02-28T04:12:44.980Z,55.28
2019-02-28T04:15:11.323Z,56.58
2019-02-28T04:17:40.184Z,54.63
2019-02-28T04:20:08.941Z,56.63
2019-02-28T04:22:37.580Z,54.45
2019-02-28T04:25:06.260Z,56.23
2019-02-28T04:27:40.457Z,50.92
2019-02-28T04:30:08.417Z,49.65
2019-02-28T04:32:37.219Z,51.37
2019-02-28T04:35:06.041Z,59.50
2019-02-28T04:37:34.717Z,50.63
2019-02-28T04:40:03.414Z,54.35
2019-02-28T04:42:32.122Z,52.15
2019-02-28T04:45:03.353Z,52.25
2019-02-28T04:47:31.983Z,51.88
2019-02-28T04:50:00.642Z,53.35
2019-02-28T04:52:29.326Z,55.83
2019-02-28T04:54:59.375Z,55.58
2019-02-28T04:57:28.381Z,55.00
2019-02-28T04:59:57.021Z,57.33
2019-02-28T05:02:25.709Z,48.08
2019-02-28T05:04:54.344Z,53.08
2019-02-28T05:07:23.167Z,56.33
2019-02-28T05:09:51.833Z,56.18
2019-02-28T05:12:20.667Z,50.15
2019-02-28T05:14:49.340Z,61.08
2019-02-28T05:17:19.313Z,58.78
2019-02-28T05:19:48.426Z,55.50
2019-02-28T05:22:17.139Z,51.92
2019-02-28T05:24:45.827Z,59.05
2019-02-28T05:27:14.575Z,49.85
2019-02-28T05:29:44.001Z,54.53
2019-02-28T05:32:13.467Z,58.15
2019-02-28T05:34:42.131Z,58.75
2019-02-28T05:37:12.528Z,55.10
2019-02-28T05:39:41.169Z,53.00
2019-02-28T05:42:09.922Z,57.25
2019-02-28T05:44:40.422Z,59.30
2019-02-28T05:47:10.605Z,54.90
2019-02-28T05:49:40.742Z,58.92
2019-02-28T05:52:09.652Z,58.05
2019-02-28T05:54:38.311Z,62.58
2019-02-28T05:57:08.090Z,56.33
2019-02-28T05:59:37.346Z,58.42
2019-02-28T06:02:06.029Z,57.00
2019-02-28T06:04:37.033Z,57.15
2019-02-28T06:07:06.547Z,56.13
2019-02-28T06:09:36.830Z,55.78
2019-02-28T06:12:06.683Z,58.23
2019-02-28T06:14:35.963Z,59.53
2019-02-28T06:17:06.947Z,57.70
2019-02-28T06:19:35.633Z,61.53
2019-02-28T06:22:04.607Z,63.35
2019-02-28T06:24:33.383Z,61.65
2019-02-28T06:27:03.643Z,58.68
2019-02-28T06:29:32.652Z,63.10
2019-02-28T06:32:01.429Z,66.80
2019-02-28T06:34:30.211Z,60.63
2019-02-28T06:37:03.149Z,67.37
2019-02-28T06:39:29.284Z,69.95
2019-02-28T06:41:57.951Z,62.45
2019-02-28T06:44:27.017Z,65.47
2019-02-28T06:46:56.364Z,68.40
2019-02-28T06:49:24.989Z,65.10
2019-02-28T06:51:53.706Z,60.70
2019-02-28T06:54:22.362Z,64.22
2019-02-28T06:56:54.086Z,64.00
2019-02-28T06:59:22.646Z,70.03
2019-02-28T07:01:56.643Z,66.70
2019-02-28T07:04:21.629Z,69.67
2019-02-28T07:06:50.296Z,67.32
2019-02-28T07:09:18.979Z,68.22
2019-02-28T07:11:47.683Z,68.60
2019-02-28T07:14:16.360Z,69.47
2019-02-28T07:16:45.114Z,68.42
2019-02-28T07:19:13.789Z,72.27
2019-02-28T07:21:43.915Z,71.33
2019-02-28T07:24:12.925Z,75.12
2019-02-28T07:26:41.652Z,74.62
2019-02-28T07:29:12.052Z,76.12
2019-02-28T07:31:40.826Z,74.95
2019-02-28T07:34:09.542Z,74.53
2019-02-28T07:36:38.288Z,78.45
2019-02-28T07:39:07.160Z,84.47
2019-02-28T07:41:35.911Z,80.95
2019-02-28T07:44:04.651Z,81.50
2019-02-28T07:46:33.426Z,89.80
2019-02-28T07:49:02.099Z,78.67
2019-02-28T07:51:30.844Z,85.67
2019-02-28T07:54:01.513Z,80.03
2019-02-28T07:56:29.893Z,82.97
2019-02-28T07:58:58.642Z,83.40
2019-02-28T08:01:27.727Z,75.62
2019-02-28T08:03:57.305Z,82.62
2019-02-28T08:06:26.019Z,83.55
2019-02-28T08:08:54.766Z,91.87
2019-02-28T08:11:23.467Z,73.97
2019-02-28T08:13:52.131Z,75.45
2019-02-28T08:16:20.823Z,76.75
2019-02-28T08:18:51.169Z,80.70
2019-02-28T08:21:19.876Z,83.55
2019-02-28T08:23:48.575Z,76.10
2019-02-28T08:26:18.868Z,73.07
2019-02-28T08:28:47.675Z,68.37
2019-02-28T08:31:16.372Z,70.32
2019-02-28T08:33:48.169Z,68.15
2019-02-28T08:36:15.438Z,65.85
2019-02-28T08:38:44.212Z,64.72
2019-02-28T08:41:12.957Z,68.90
2019-02-28T08:43:44.664Z,71.15
2019-02-28T08:46:13.739Z,69.65
2019-02-28T08:48:42.713Z,67.35
2019-02-28T08:51:12.528Z,67.70
2019-02-28T08:53:41.290Z,73.25
2019-02-28T08:56:10.996Z,67.90
2019-02-28T08:58:42.664Z,71.42
2019-02-28T09:01:11.474Z,63.65
2019-02-28T09:03:40.657Z,63.45
2019-02-28T09:06:09.547Z,64.22
2019-02-28T09:08:38.270Z,67.70
2019-02-28T09:11:07.362Z,55.70
2019-02-28T09:13:36.091Z,62.35
2019-02-28T09:16:05.071Z,56.28
2019-02-28T09:18:34.324Z,60.05
2019-02-28T09:21:03.098Z,62.05
2019-02-28T09:23:34.404Z,64.82
2019-02-28T09:26:03.482Z,57.10
2019-02-28T09:28:32.342Z,56.08
2019-02-28T09:31:01.410Z,55.12
2019-02-28T09:33:31.465Z,55.67
2019-02-28T09:36:01.289Z,54.63
2019-02-28T09:38:29.965Z,54.83
2019-02-28T09:41:01.344Z,47.70
2019-02-28T09:43:28.943Z,50.00
2019-02-28T09:45:57.610Z,52.85
2019-02-28T09:48:34.007Z,51.75
2019-02-28T09:51:04.048Z,46.80
2019-02-28T09:53:32.696Z,47.45
2019-02-28T09:56:01.445Z,50.05
2019-02-28T09:58:30.117Z,51.48
2019-02-28T10:00:58.940Z,47.15
2019-02-28T10:03:27.638Z,48.10
2019-02-28T10:05:56.342Z,45.28
2019-02-28T10:08:24.997Z,44.85
2019-02-28T10:10:55.799Z,42.65
2019-02-28T10:13:24.153Z,43.28
2019-02-28T10:15:52.896Z,39.85
2019-02-28T10:18:21.627Z,43.60
2019-02-28T10:20:50.382Z,41.65
2019-02-28T10:23:21.443Z,38.15
2019-02-28T10:25:49.432Z,38.13
2019-02-28T10:28:18.200Z,37.88
2019-02-28T10:30:47.180Z,39.20
2019-02-28T10:33:18.079Z,38.02
2019-02-28T10:35:46.855Z,39.63
2019-02-28T10:38:15.556Z,36.70
2019-02-28T10:40:44.319Z,35.68
2019-02-28T10:43:15.493Z,36.93
2019-02-28T10:45:43.383Z,36.50
2019-02-28T10:48:12.101Z,36.28
2019-02-28T10:50:40.854Z,38.38
2019-02-28T10:53:09.582Z,40.50
2019-02-28T10:55:38.277Z,40.23
2019-02-28T10:58:07.097Z,35.10
2019-02-28T11:00:36.512Z,41.55
2019-02-28T11:03:05.440Z,37.03
2019-02-28T11:05:34.333Z,39.58
2019-02-28T11:08:03.497Z,40.67
2019-02-28T11:10:35.521Z,37.33
2019-02-28T11:13:03.489Z,41.60
2019-02-28T11:15:32.197Z,38.98
2019-02-28T11:18:00.871Z,33.90
2019-02-28T11:20:29.642Z,40.17
2019-02-28T11:22:58.318Z,34.40
2019-02-28T11:25:27.378Z,35.85
2019-02-28T11:27:56.137Z,35.50
2019-02-28T11:30:24.946Z,30.48
2019-02-28T11:32:53.665Z,31.17
2019-02-28T11:35:23.267Z,32.10
2019-02-28T11:37:52.620Z,34.90
2019-02-28T11:40:21.959Z,35.50
2019-02-28T11:42:50.632Z,34.15
2019-02-28T11:45:22.050Z,34.88
2019-02-28T11:47:51.108Z,28.47
2019-02-28T11:50:19.772Z,33.78
2019-02-28T11:52:48.461Z,31.90
2019-02-28T11:55:20.374Z,31.00
2019-02-28T11:57:48.561Z,29.45
2019-02-28T12:00:19.134Z,28.83
2019-02-28T12:02:53.271Z,28.70
2019-02-28T12:05:18.291Z,31.70
2019-02-28T12:07:47.054Z,26.30
2019-02-28T12:10:15.776Z,27.48
2019-02-28T12:12:45.367Z,32.73
2019-02-28T12:15:14.596Z,30.95
2019-02-28T12:17:43.297Z,28.07
2019-02-28T12:20:12.394Z,32.20
2019-02-28T12:22:43.990Z,30.52
2019-02-28T12:25:13.135Z,33.40
2019-02-28T12:27:41.822Z,31.52
2019-02-28T12:30:12.122Z,30.62
2019-02-28T12:32:43.341Z,36.73
2019-02-28T12:35:11.286Z,30.68
2019-02-28T12:37:39.962Z,33.10
2019-02-28T12:40:10.293Z,35.48
2019-02-28T12:42:39.820Z,26.97
2019-02-28T12:45:10.104Z,27.20
2019-02-28T12:47:41.591Z,31.25
2019-02-28T12:50:09.378Z,32.80
2019-02-28T12:52:38.088Z,30.00
2019-02-28T12:55:07.738Z,33.88
2019-02-28T12:57:36.382Z,36.15
2019-02-28T13:00:05.696Z,28.80
2019-02-28T13:02:35.059Z,32.58
2019-02-28T13:05:04.111Z,30.45
2019-02-28T13:07:33.937Z,27.82
2019-02-28T13:10:04.026Z,25.68
2019-02-28T13:12:32.876Z,32.10
2019-02-28T13:15:01.570Z,27.17
2019-02-28T13:17:31.646Z,25.52
2019-02-28T13:20:00.701Z,27.37
2019-02-28T13:22:29.419Z,27.22
2019-02-28T13:24:58.101Z,24.05
2019-02-28T13:27:26.774Z,24.15
2019-02-28T13:29:55.516Z,25.17
2019-02-28T13:32:24.171Z,25.32
2019-02-28T13:34:52.811Z,29.87
2019-02-28T13:37:21.598Z,26.40
2019-02-28T13:39:50.334Z,28.47
2019-02-28T13:42:19.040Z,29.37
2019-02-28T13:44:47.788Z,27.45
2019-02-28T13:47:17.507Z,27.70
2019-02-28T13:49:46.634Z,30.88
2019-02-28T13:52:20.302Z,37.53
2019-02-28T13:54:45.801Z,27.10
2019-02-28T13:57:14.547Z,32.60
2019-02-28T13:59:43.262Z,35.43
2019-02-28T14:02:13.611Z,36.80
2019-02-28T14:04:42.433Z,31.42
2019-02-28T14:07:11.135Z,29.52
2019-02-28T14:09:39.853Z,37.93
2019-02-28T14:12:08.715Z,28.70
2019-02-28T14:14:38.900Z,31.62
2019-02-28T14:17:07.885Z,32.48
2019-02-28T14:19:36.589Z,31.37
2019-02-28T14:22:05.358Z,34.78
2019-02-28T14:24:34.260Z,26.27
2019-02-28T14:27:02.927Z,28.05
2019-02-28T14:29:31.689Z,27.20
2019-02-28T14:32:00.417Z,27.70
2019-02-28T14:34:29.202Z,29.00
2019-02-28T14:36:57.855Z,26.37
2019-02-28T14:39:26.523Z,26.85
2019-02-28T14:41:55.220Z,32.73
2019-02-28T14:44:23.918Z,30.88
2019-02-28T14:46:53.283Z,31.20
2019-02-28T14:49:22.789Z,26.65
2019-02-28T14:51:51.491Z,26.30
2019-02-28T14:54:21.926Z,30.80
2019-02-28T14:56:50.588Z,26.37
2019-02-28T14:59:19.320Z,26.05
2019-02-28T15:01:49.546Z,24.35
2019-02-28T15:04:18.458Z,29.18
2019-02-28T15:06:47.375Z,26.60
2019-02-28T15:09:17.043Z,26.68
2019-02-28T15:11:46.835Z,31.00
2019-02-28T15:14:16.204Z,28.42
2019-02-28T15:16:44.983Z,26.20
2019-02-28T15:19:13.696Z,25.45
2019-02-28T15:21:42.746Z,24.18
2019-02-28T15:24:13.106Z,27.15
2019-02-28T15:26:41.868Z,26.80
2019-02-28T15:29:10.547Z,31.77
2019-02-28T15:31:40.452Z,27.05
2019-02-28T15:34:09.260Z,23.87
2019-02-28T15:36:37.964Z,18.20
2019-02-28T15:39:06.625Z,19.85
2019-02-28T15:41:35.428Z,20.32
2019-02-28T15:44:05.169Z,20.45
2019-02-28T15:46:35.878Z,19.03
2019-02-28T15:49:06.554Z,21.70
2019-02-28T15:51:35.587Z,19.25
2019-02-28T15:54:04.478Z,18.00
2019-02-28T15:56:33.280Z,18.32
2019-02-28T15:59:03.415Z,19.30
2019-02-28T16:01:33.099Z,13.68
2019-02-28T16:04:01.959Z,14.35
2019-02-28T16:06:30.703Z,12.63
2019-02-28T16:08:59.456Z,13.32
2019-02-28T16:11:29.235Z,13.60
2019-02-28T16:14:00.486Z,16.23
2019-02-28T16:16:28.387Z,15.70
2019-02-28T16:18:57.151Z,12.73
2019-02-28T16:21:25.837Z,12.20
2019-02-28T16:23:54.495Z,17.98
2019-02-28T16:26:23.182Z,14.07
2019-02-28T16:28:51.878Z,14.90
2019-02-28T16:31:20.624Z,17.25
2019-02-28T16:33:49.366Z,17.40
2019-02-28T16:36:18.138Z,17.95
2019-02-28T16:38:46.811Z,14.40
2019-02-28T16:41:15.526Z,12.82
2019-02-28T16:43:44.262Z,16.10
2019-02-28T16:46:15.469Z,15.55
2019-02-28T16:48:44.502Z,13.90
2019-02-28T16:51:13.170Z,18.20
2019-02-28T16:53:41.850Z,16.02
2019-02-28T16:56:10.726Z,17.90
2019-02-28T16:58:39.401Z,15.83
2019-02-28T17:01:08.171Z,15.20
2019-02-28T17:03:38.414Z,17.07
2019-02-28T17:06:07.342Z,11.70
2019-02-28T17:08:42.904Z,14.13
2019-02-28T17:11:11.583Z,13.03
2019-02-28T17:13:44.816Z,14.30
2019-02-28T17:16:23.006Z,17.02
2019-02-28T17:18:53.597Z,16.57
2019-02-28T17:21:23.733Z,13.80
2019-02-28T17:23:52.501Z,20.30
2019-02-28T17:26:31.060Z,17.82
2019-02-28T17:29:08.653Z,16.62
2019-02-28T17:31:48.244Z,15.75
2019-02-28T17:34:23.715Z,16.00
2019-02-28T17:36:49.398Z,16.48
2019-02-28T17:39:18.090Z,15.70
2019-02-28T17:41:46.893Z,15.65
2019-02-28T17:44:24.362Z,16.12
2019-02-28T17:46:53.137Z,16.07
2019-02-28T17:49:33.902Z,14.10
2019-02-28T17:52:12.421Z,20.50
2019-02-28T17:55:03.298Z,18.07
2019-02-28T17:57:53.556Z,20.95
2019-02-28T18:00:42.184Z,15.72
2019-02-28T18:03:17.240Z,20.77
2019-02-28T18:06:14.255Z,20.85
2019-02-28T18:08:55.015Z,18.80
2019-02-28T18:11:42.820Z,17.50
2019-02-28T18:14:18.117Z,16.57
2019-02-28T18:17:12.034Z,14.63
2019-02-28T18:20:05.932Z,17.70
2019-02-28T18:22:42.791Z,19.45
2019-02-28T18:25:51.965Z,19.50
2019-02-28T18:28:50.860Z,15.63
2019-02-28T18:31:22.278Z,15.10
2019-02-28T18:33:52.312Z,13.68
2019-02-28T18:36:23.242Z,13.45
2019-02-28T18:38:52.931Z,12.70
2019-02-28T18:41:21.749Z,17.37
2019-02-28T18:43:50.523Z,13.95
2019-02-28T18:46:19.313Z,13.08
2019-02-28T18:48:51.165Z,16.20
2019-02-28T18:51:20.598Z,15.98
2019-02-28T18:53:49.201Z,12.35
2019-02-28T18:56:18.017Z,14.28
2019-02-28T18:58:46.965Z,15.23
2019-02-28T19:01:15.708Z,18.87
2019-02-28T19:03:44.593Z,12.25
2019-02-28T19:06:16.157Z,17.37
2019-02-28T19:08:45.142Z,13.48
2019-02-28T19:11:14.175Z,13.58
2019-02-28T19:13:43.183Z,13.80
2019-02-28T19:16:12.800Z,14.38
2019-02-28T19:18:41.688Z,12.90
2019-02-28T19:21:11.611Z,18.98
2019-02-28T19:23:40.443Z,16.43
2019-02-28T19:26:12.498Z,18.57
2019-02-28T19:28:41.503Z,17.67
2019-02-28T19:31:10.559Z,18.75
2019-02-28T19:33:39.537Z,15.32
2019-02-28T19:36:08.319Z,17.55
2019-02-28T19:38:37.585Z,16.52
2019-02-28T19:41:06.819Z,18.30
2019-02-28T19:43:35.760Z,16.35
2019-02-28T19:46:04.444Z,15.58
2019-02-28T19:48:35.087Z,18.17
2019-02-28T19:51:04.084Z,13.08
2019-02-28T19:53:32.907Z,16.60
2019-02-28T19:56:01.764Z,16.07
2019-02-28T19:58:30.596Z,15.25
2019-02-28T20:00:59.430Z,15.03
2019-02-28T20:03:28.215Z,12.68
2019-02-28T20:05:57.038Z,14.50
2019-02-28T20:08:25.807Z,11.28
2019-02-28T20:10:54.603Z,16.15
2019-02-28T20:13:23.508Z,14.50
2019-02-28T20:15:52.468Z,12.85
2019-02-28T20:18:21.258Z,13.48
2019-02-28T20:20:50.536Z,16.07
2019-02-28T20:23:19.376Z,11.35
2019-02-28T20:25:48.134Z,13.18
2019-02-28T20:28:16.837Z,14.33
2019-02-28T20:30:47.642Z,16.50
2019-02-28T20:33:16.486Z,18.48
2019-02-28T20:35:45.248Z,17.57
2019-02-28T20:38:14.659Z,18.50
2019-02-28T20:40:43.767Z,14.40
2019-02-28T20:43:12.500Z,20.35
2019-02-28T20:45:41.307Z,15.13
2019-02-28T20:48:10.003Z,14.83
2019-02-28T20:50:39.992Z,13.18
2019-02-28T20:53:08.931Z,16.20
2019-02-28T20:55:37.770Z,17.95
2019-02-28T20:58:06.559Z,13.25
2019-02-28T21:00:35.360Z,14.15
2019-02-28T21:03:04.244Z,15.20
2019-02-28T21:05:33.108Z,15.23
2019-02-28T21:08:01.778Z,14.78
2019-02-28T21:10:32.580Z,13.75
2019-02-28T21:13:01.249Z,14.05
2019-02-28T21:15:30.169Z,16.05
2019-02-28T21:17:58.943Z,13.05
2019-02-28T21:20:28.165Z,12.75
2019-02-28T21:22:56.992Z,16.10
2019-02-28T21:25:25.774Z,11.33
2019-02-28T21:27:54.655Z,14.73
2019-02-28T21:30:23.409Z,12.13
2019-02-28T21:32:52.448Z,17.37
2019-02-28T21:35:22.696Z,12.93
2019-02-28T21:37:51.758Z,15.50
2019-02-28T21:40:20.925Z,15.25
2019-02-28T21:42:50.001Z,12.28
2019-02-28T21:45:18.816Z,13.20
2019-02-28T21:47:47.716Z,11.10
2019-02-28T21:50:17.878Z,13.88
2019-02-28T21:52:46.720Z,13.75
2019-02-28T21:55:15.682Z,16.17
2019-02-28T21:57:44.416Z,15.55
2019-02-28T22:00:14.379Z,12.60
2019-02-28T22:02:44.785Z,13.05
2019-02-28T22:05:13.474Z,13.68
2019-02-28T22:07:44.490Z,15.65
2019-02-28T22:10:12.866Z,11.63
2019-02-28T22:12:41.779Z,16.95
2019-02-28T22:15:11.485Z,13.15
2019-02-28T22:17:40.275Z,15.45
2019-02-28T22:20:10.294Z,15.08
2019-02-28T22:22:39.313Z,14.13
2019-02-28T22:25:08.750Z,15.40
2019-02-28T22:27:37.485Z,15.10
2019-02-28T22:30:27.878Z,12.88
2019-02-28T22:32:58.345Z,12.47
2019-02-28T22:35:39.858Z,12.23
2019-02-28T22:38:08.614Z,16.62
2019-02-28T22:40:37.336Z,17.10
2019-02-28T22:43:06.202Z,16.85
2019-02-28T22:45:34.963Z,15.60
2019-02-28T22:48:03.745Z,17.07
2019-02-28T22:50:32.637Z,13.78
2019-02-28T22:53:01.411Z,13.43
2019-02-28T22:55:30.118Z,14.75
2019-02-28T22:57:58.852Z,14.35
2019-02-28T23:00:58.435Z,15.78
2019-02-28T23:03:28.302Z,15.63
2019-02-28T23:05:57.022Z,18.77
2019-02-28T23:08:27.348Z,12.93
2019-02-28T23:10:56.121Z,17.05
2019-02-28T23:13:24.778Z,18.20
2019-02-28T23:15:53.558Z,16.85
2019-02-28T23:18:22.385Z,16.77
2019-02-28T23:20:51.053Z,18.37
2019-02-28T23:23:19.718Z,14.15
2019-02-28T23:25:48.403Z,19.07
2019-02-28T23:28:41.965Z,21.48
2019-02-28T23:31:38.672Z,19.30
2019-02-28T23:34:09.708Z,17.77
2019-02-28T23:36:38.506Z,18.35
2019-02-28T23:39:07.362Z,24.27
2019-02-28T23:41:37.812Z,18.70
2019-02-28T23:44:06.693Z,21.33
2019-02-28T23:46:35.388Z,18.45
2019-02-28T23:49:04.031Z,20.48
2019-02-28T23:51:32.749Z,19.35
2019-02-28T23:54:01.484Z,21.60
2019-02-28T23:56:30.192Z,19.23
2019-02-28T23:58:58.880Z,18.48
